createdAt,value
2022-12-31T00:01:38.373Z,87.46
2022-12-31T00:04:05.406Z,87.35
2022-12-31T00:06:34.843Z,87.72
2022-12-31T00:09:06.361Z,87.65
2022-12-31T00:11:33.972Z,87.50
2022-12-31T00:14:00.663Z,87.55
2022-12-31T00:16:33.054Z,87.31
2022-12-31T00:19:00.972Z,87.50
2022-12-31T00:21:31.056Z,86.81
2022-12-31T00:23:57.909Z,86.97
2022-12-31T00:26:28.252Z,87.64
2022-12-31T00:28:56.870Z,87.13
2022-12-31T00:31:26.929Z,87.20
2022-12-31T00:33:57.820Z,87.35
2022-12-31T00:36:28.500Z,86.73
2022-12-31T00:38:57.530Z,86.48
2022-12-31T00:41:25.753Z,86.20
2022-12-31T00:43:54.368Z,86.34
2022-12-31T00:46:22.250Z,86.51
2022-12-31T00:48:49.223Z,85.90
2022-12-31T00:51:20.325Z,84.91
2022-12-31T00:53:48.912Z,85.69
2022-12-31T00:56:19.713Z,85.63
2022-12-31T00:58:47.560Z,86.15
2022-12-31T01:01:25.005Z,86.48
2022-12-31T01:03:55.969Z,86.56
2022-12-31T01:06:23.745Z,86.82
2022-12-31T01:08:51.664Z,86.11
2022-12-31T01:11:19.377Z,86.51
2022-12-31T01:13:51.203Z,85.55
2022-12-31T01:16:20.838Z,86.42
2022-12-31T01:18:47.737Z,86.46
2022-12-31T01:21:15.409Z,87.18
2022-12-31T01:23:45.408Z,87.32
2022-12-31T01:26:14.442Z,87.60
2022-12-31T01:28:41.458Z,86.29
2022-12-31T01:31:13.582Z,86.31
2022-12-31T01:33:41.587Z,86.91
2022-12-31T01:36:12.849Z,86.94
2022-12-31T01:38:39.984Z,87.28
2022-12-31T01:41:12.791Z,87.46
2022-12-31T01:43:51.185Z,87.33
2022-12-31T01:46:28.878Z,87.45
2022-12-31T01:49:21.460Z,87.71
2022-12-31T01:52:00.887Z,87.42
2022-12-31T01:54:32.673Z,87.53
2022-12-31T01:56:59.626Z,87.13
2022-12-31T01:59:28.999Z,86.89
2022-12-31T02:01:59.383Z,86.24
2022-12-31T02:04:28.118Z,86.79
2022-12-31T02:07:01.026Z,86.26
2022-12-31T02:09:29.483Z,86.27
2022-12-31T02:11:57.259Z,86.07
2022-12-31T02:14:34.802Z,86.88
2022-12-31T02:17:22.557Z,86.37
2022-12-31T02:20:27.257Z,86.51
2022-12-31T02:23:27.259Z,85.86
2022-12-31T02:26:30.561Z,86.58
2022-12-31T02:29:21.628Z,86.74
2022-12-31T02:31:59.035Z,86.23
2022-12-31T02:34:40.028Z,86.56
2022-12-31T02:37:12.430Z,86.74
2022-12-31T02:39:41.022Z,86.75
2022-12-31T02:42:07.898Z,86.46
2022-12-31T02:44:36.798Z,86.45
2022-12-31T02:47:10.624Z,86.17
2022-12-31T02:50:02.209Z,86.02
2022-12-31T02:52:47.524Z,85.90
2022-12-31T02:55:50.851Z,86.11
2022-12-31T02:59:01.150Z,85.63
2022-12-31T03:01:54.250Z,85.23
2022-12-31T03:04:32.243Z,85.33
2022-12-31T03:07:05.103Z,84.88
2022-12-31T03:09:32.479Z,84.34
2022-12-31T03:12:18.228Z,84.98
2022-12-31T03:14:47.793Z,84.28
2022-12-31T03:17:14.980Z,84.73
2022-12-31T03:20:01.508Z,85.22
2022-12-31T03:22:28.211Z,85.22
2022-12-31T03:25:29.408Z,85.27
2022-12-31T03:27:57.199Z,85.10
2022-12-31T03:30:27.620Z,85.62
2022-12-31T03:32:56.346Z,85.03
2022-12-31T03:35:24.677Z,85.12
2022-12-31T03:37:58.182Z,85.05
2022-12-31T03:40:27.158Z,85.29
2022-12-31T03:42:54.318Z,85.33
2022-12-31T03:45:24.843Z,84.89
2022-12-31T03:47:53.428Z,84.87
2022-12-31T03:50:23.768Z,84.72
2022-12-31T03:52:50.512Z,85.11
2022-12-31T03:55:17.643Z,84.91
2022-12-31T03:57:44.573Z,84.78
2022-12-31T04:00:15.270Z,84.82
2022-12-31T04:02:42.430Z,85.80
2022-12-31T04:05:09.705Z,85.25
2022-12-31T04:07:36.909Z,85.21
2022-12-31T04:10:08.709Z,85.43
2022-12-31T04:12:38.919Z,85.13
2022-12-31T04:15:19.035Z,85.19
2022-12-31T04:17:48.556Z,85.31
2022-12-31T04:20:16.364Z,85.34
2022-12-31T04:22:44.407Z,84.79
2022-12-31T04:25:11.767Z,84.25
2022-12-31T04:27:45.451Z,83.18
2022-12-31T04:30:15.322Z,84.46
2022-12-31T04:32:42.488Z,83.28
2022-12-31T04:35:11.637Z,83.37
2022-12-31T04:37:44.488Z,83.41
2022-12-31T04:40:11.507Z,83.44
2022-12-31T04:42:41.005Z,83.72
2022-12-31T04:45:09.293Z,83.26
2022-12-31T04:47:39.134Z,82.36
2022-12-31T04:50:06.364Z,82.25
2022-12-31T04:52:42.445Z,81.96
2022-12-31T04:55:10.482Z,82.54
2022-12-31T04:57:38.807Z,82.56
2022-12-31T05:00:06.632Z,82.26
2022-12-31T05:02:33.695Z,82.66
2022-12-31T05:05:00.646Z,82.42
2022-12-31T05:07:29.905Z,82.02
2022-12-31T05:09:59.437Z,81.83
2022-12-31T05:12:26.903Z,82.15
2022-12-31T05:14:53.654Z,82.63
2022-12-31T05:17:24.067Z,82.90
2022-12-31T05:19:50.806Z,82.74
2022-12-31T05:22:29.540Z,82.84
2022-12-31T05:24:59.195Z,83.56
2022-12-31T05:27:35.524Z,83.69
2022-12-31T05:30:03.304Z,83.83
2022-12-31T05:32:30.185Z,84.80
2022-12-31T05:34:58.071Z,84.80
2022-12-31T05:37:24.818Z,84.26
2022-12-31T05:39:52.004Z,84.98
2022-12-31T05:42:19.869Z,84.73
2022-12-31T05:44:49.441Z,85.07
2022-12-31T05:47:17.859Z,84.15
2022-12-31T05:49:45.066Z,83.86
2022-12-31T05:52:12.210Z,84.15
2022-12-31T05:54:39.024Z,84.25
2022-12-31T05:57:08.411Z,84.02
2022-12-31T05:59:35.118Z,84.16
2022-12-31T06:02:05.531Z,84.30
2022-12-31T06:04:32.392Z,83.97
2022-12-31T06:07:02.059Z,83.86
2022-12-31T06:09:28.864Z,84.48
2022-12-31T06:11:55.716Z,85.24
2022-12-31T06:14:22.750Z,85.23
2022-12-31T06:16:51.309Z,85.25
2022-12-31T06:19:18.229Z,85.05
2022-12-31T06:21:45.179Z,84.90
2022-12-31T06:24:12.309Z,84.46
2022-12-31T06:26:39.119Z,84.42
2022-12-31T06:29:05.844Z,84.37
2022-12-31T06:31:35.639Z,84.13
2022-12-31T06:34:05.527Z,84.49
2022-12-31T06:36:32.594Z,84.41
2022-12-31T06:38:59.496Z,83.78
2022-12-31T06:41:26.271Z,83.83
2022-12-31T06:43:53.147Z,84.26
2022-12-31T06:46:19.980Z,84.01
2022-12-31T06:48:46.959Z,84.16
2022-12-31T06:51:19.053Z,84.30
2022-12-31T06:53:46.255Z,85.11
2022-12-31T06:56:32.986Z,83.97
2022-12-31T06:59:00.988Z,84.88
2022-12-31T07:01:37.564Z,84.47
2022-12-31T07:04:10.620Z,84.32
2022-12-31T07:06:51.834Z,84.38
2022-12-31T07:09:36.179Z,85.14
2022-12-31T07:12:14.268Z,84.10
2022-12-31T07:14:52.158Z,84.66
2022-12-31T07:18:10.403Z,84.06
2022-12-31T07:20:37.441Z,84.43
2022-12-31T07:23:04.997Z,84.77
2022-12-31T07:25:32.820Z,85.02
2022-12-31T07:28:20.552Z,84.14
2022-12-31T07:31:02.804Z,83.73
2022-12-31T07:33:35.545Z,83.44
2022-12-31T07:36:40.897Z,84.45
2022-12-31T07:39:16.472Z,83.85
2022-12-31T07:42:10.949Z,83.75
2022-12-31T07:45:10.439Z,84.15
2022-12-31T07:47:40.485Z,84.00
2022-12-31T07:50:15.219Z,83.84
2022-12-31T07:52:42.498Z,83.02
2022-12-31T07:55:10.846Z,82.49
2022-12-31T07:57:58.320Z,82.48
2022-12-31T08:00:26.195Z,82.54
2022-12-31T08:03:15.814Z,82.45
2022-12-31T08:06:36.046Z,81.83
2022-12-31T08:09:09.567Z,81.70
2022-12-31T08:11:46.589Z,81.80
2022-12-31T08:14:16.560Z,82.14
2022-12-31T08:16:43.718Z,81.87
2022-12-31T08:19:30.896Z,82.43
2022-12-31T08:22:09.058Z,81.44
2022-12-31T08:24:57.451Z,80.93
2022-12-31T08:28:25.409Z,79.38
2022-12-31T08:31:35.373Z,80.11
2022-12-31T08:34:52.622Z,80.27
2022-12-31T08:37:39.377Z,80.72
2022-12-31T08:40:30.373Z,79.59
2022-12-31T08:43:10.546Z,78.74
2022-12-31T08:45:52.445Z,78.93
2022-12-31T08:48:37.483Z,78.59
2022-12-31T08:51:04.729Z,78.53
2022-12-31T08:53:32.145Z,79.43
2022-12-31T08:56:17.426Z,78.79
2022-12-31T08:58:57.463Z,78.65
2022-12-31T09:01:30.425Z,78.30
2022-12-31T09:03:59.302Z,78.15
2022-12-31T09:06:52.795Z,76.34
2022-12-31T09:09:32.956Z,76.45
2022-12-31T09:12:25.725Z,75.96
2022-12-31T09:15:30.332Z,77.09
2022-12-31T09:17:58.774Z,77.09
2022-12-31T09:20:41.826Z,77.60
2022-12-31T09:23:12.888Z,76.18
2022-12-31T09:25:53.295Z,74.65
2022-12-31T09:28:23.672Z,73.82
2022-12-31T09:31:12.737Z,74.18
2022-12-31T09:33:53.056Z,74.84
2022-12-31T09:36:28.838Z,74.18
2022-12-31T09:39:11.137Z,74.20
2022-12-31T09:41:40.836Z,73.91
2022-12-31T09:44:46.117Z,73.97
2022-12-31T09:47:33.305Z,75.39
2022-12-31T09:50:25.910Z,73.69
2022-12-31T09:53:27.880Z,73.74
2022-12-31T09:56:02.286Z,74.14
2022-12-31T09:58:38.049Z,74.87
2022-12-31T10:01:17.653Z,74.21
2022-12-31T10:04:06.847Z,73.59
2022-12-31T10:06:45.707Z,72.68
2022-12-31T10:09:57.506Z,72.97
2022-12-31T10:12:42.306Z,72.80
2022-12-31T10:15:24.029Z,73.04
2022-12-31T10:17:53.403Z,74.12
2022-12-31T10:20:26.071Z,74.51
2022-12-31T10:23:17.866Z,74.15
2022-12-31T10:25:54.266Z,73.46
2022-12-31T10:28:45.746Z,73.31
2022-12-31T10:31:50.039Z,72.97
2022-12-31T10:34:42.431Z,70.82
2022-12-31T10:37:17.098Z,72.31
2022-12-31T10:40:02.023Z,72.66
2022-12-31T10:42:37.799Z,72.01
2022-12-31T10:45:32.762Z,70.98
2022-12-31T10:48:30.863Z,71.33
2022-12-31T10:51:19.332Z,70.27
2022-12-31T10:53:55.260Z,70.44
2022-12-31T10:56:55.644Z,70.17
2022-12-31T10:59:25.378Z,71.54
2022-12-31T11:02:01.598Z,70.42
2022-12-31T11:04:40.585Z,70.56
2022-12-31T11:07:32.715Z,70.43
2022-12-31T11:10:17.822Z,70.96
2022-12-31T11:13:02.495Z,71.19
2022-12-31T11:15:29.131Z,71.28
2022-12-31T11:17:58.974Z,70.69
2022-12-31T11:20:50.520Z,69.12
2022-12-31T11:23:32.722Z,68.35
2022-12-31T11:26:14.124Z,70.17
2022-12-31T11:29:08.447Z,69.04
2022-12-31T11:32:06.997Z,68.87
2022-12-31T11:34:49.020Z,68.48
2022-12-31T11:37:31.893Z,68.49
2022-12-31T11:40:15.271Z,69.57
2022-12-31T11:43:03.697Z,69.74
2022-12-31T11:46:03.001Z,69.03
2022-12-31T11:48:52.811Z,68.70
2022-12-31T11:51:38.317Z,68.23
2022-12-31T11:54:42.963Z,70.20
2022-12-31T11:57:17.717Z,69.48
2022-12-31T11:59:46.890Z,70.13
2022-12-31T12:02:35.379Z,68.96
2022-12-31T12:05:10.686Z,68.64
2022-12-31T12:07:37.935Z,69.45
2022-12-31T12:10:23.302Z,67.99
2022-12-31T12:12:54.034Z,68.44
2022-12-31T12:15:32.020Z,69.05
2022-12-31T12:18:05.328Z,68.58
2022-12-31T12:20:37.170Z,68.08
2022-12-31T12:23:13.562Z,67.49
2022-12-31T12:25:44.979Z,67.94
2022-12-31T12:28:19.464Z,68.67
2022-12-31T12:30:55.428Z,69.31
2022-12-31T12:33:23.306Z,68.91
2022-12-31T12:35:50.996Z,69.27
2022-12-31T12:38:21.244Z,69.88
2022-12-31T12:41:04.004Z,69.75
2022-12-31T12:43:33.877Z,69.88
2022-12-31T12:46:06.989Z,69.94
2022-12-31T12:48:55.214Z,68.84
2022-12-31T12:51:55.826Z,69.93
2022-12-31T12:54:50.442Z,70.47
2022-12-31T12:57:25.168Z,70.27
2022-12-31T13:00:36.898Z,70.67
2022-12-31T13:03:31.063Z,69.78
2022-12-31T13:06:33.794Z,70.30
2022-12-31T13:09:23.533Z,70.03
2022-12-31T13:12:07.287Z,70.82
2022-12-31T13:14:46.969Z,70.76
2022-12-31T13:17:28.875Z,70.62
2022-12-31T13:19:55.616Z,70.54
2022-12-31T13:22:32.950Z,70.19
2022-12-31T13:25:24.038Z,70.06
2022-12-31T13:27:54.113Z,71.02
2022-12-31T13:30:30.851Z,71.75
2022-12-31T13:33:07.452Z,72.68
2022-12-31T13:35:43.476Z,72.50
2022-12-31T13:38:23.350Z,72.72
2022-12-31T13:41:12.173Z,71.88
2022-12-31T13:43:38.821Z,72.14
2022-12-31T13:46:33.673Z,72.12
2022-12-31T13:49:05.089Z,71.97
2022-12-31T13:51:44.689Z,72.44
2022-12-31T13:54:44.440Z,71.21
2022-12-31T13:57:21.545Z,72.14
2022-12-31T13:59:54.355Z,72.05
2022-12-31T14:02:59.659Z,72.50
2022-12-31T14:05:38.271Z,72.29
2022-12-31T14:08:07.193Z,72.77
2022-12-31T14:10:52.520Z,73.12
2022-12-31T14:13:50.196Z,72.40
2022-12-31T14:16:52.048Z,72.55
2022-12-31T14:19:43.415Z,72.98
2022-12-31T14:22:30.327Z,72.61
2022-12-31T14:25:02.163Z,73.34
2022-12-31T14:27:31.354Z,73.21
2022-12-31T14:30:02.606Z,73.41
2022-12-31T14:32:55.204Z,73.45
2022-12-31T14:35:30.596Z,73.57
2022-12-31T14:38:34.423Z,74.49
2022-12-31T14:41:23.861Z,74.54
2022-12-31T14:44:09.145Z,74.17
2022-12-31T14:46:58.592Z,74.11
2022-12-31T14:49:59.432Z,74.43
2022-12-31T14:52:47.669Z,74.06
2022-12-31T14:55:18.040Z,74.07
2022-12-31T14:58:25.984Z,74.89
2022-12-31T15:00:39.051Z,75.46
2022-12-31T15:03:15.003Z,75.38
2022-12-31T15:06:03.760Z,75.25
2022-12-31T15:08:54.768Z,74.72
2022-12-31T15:11:43.325Z,74.46
2022-12-31T15:14:51.286Z,74.74
2022-12-31T15:17:47.406Z,75.30
2022-12-31T15:20:48.584Z,74.93
2022-12-31T15:23:24.324Z,74.90
2022-12-31T15:26:00.177Z,75.34
2022-12-31T15:28:35.644Z,75.26
2022-12-31T15:31:05.161Z,75.93
2022-12-31T15:33:40.795Z,75.74
2022-12-31T15:36:12.471Z,75.98
2022-12-31T15:38:42.223Z,76.10
2022-12-31T15:41:42.904Z,75.95
2022-12-31T15:44:40.544Z,76.13
2022-12-31T15:47:13.420Z,76.21
2022-12-31T15:49:44.307Z,75.88
2022-12-31T15:52:21.100Z,76.66
2022-12-31T15:54:54.954Z,76.86
2022-12-31T15:57:33.937Z,76.30
2022-12-31T16:00:05.988Z,76.35
2022-12-31T16:02:33.121Z,76.58
2022-12-31T16:05:01.954Z,76.40
2022-12-31T16:07:29.166Z,76.77
2022-12-31T16:09:59.170Z,76.51
2022-12-31T16:12:33.182Z,76.80
2022-12-31T16:15:01.808Z,76.42
2022-12-31T16:17:34.767Z,76.45
2022-12-31T16:20:20.720Z,76.68
2022-12-31T16:22:53.247Z,76.41
2022-12-31T16:25:36.570Z,76.48
2022-12-31T16:28:07.007Z,76.42
2022-12-31T16:30:37.571Z,76.92
2022-12-31T16:33:07.129Z,76.66
2022-12-31T16:35:36.782Z,76.94
2022-12-31T16:38:16.840Z,76.39
2022-12-31T16:41:02.009Z,76.32
2022-12-31T16:43:31.053Z,76.27
2022-12-31T16:46:10.563Z,75.87
2022-12-31T16:48:38.564Z,76.44
2022-12-31T16:51:06.470Z,76.06
2022-12-31T16:53:36.873Z,76.01
2022-12-31T16:56:11.005Z,75.18
2022-12-31T16:58:45.255Z,75.21
2022-12-31T17:03:47.410Z,74.07
2022-12-31T17:06:20.103Z,74.46
2022-12-31T17:09:05.144Z,74.44
2022-12-31T17:11:36.483Z,74.18
2022-12-31T17:14:09.620Z,74.83
2022-12-31T17:17:07.273Z,74.97
2022-12-31T17:19:39.707Z,74.89
2022-12-31T17:22:35.896Z,75.24
2022-12-31T17:25:08.722Z,74.50
2022-12-31T17:27:39.763Z,74.90
2022-12-31T17:30:40.831Z,74.58
2022-12-31T17:33:11.944Z,74.63
2022-12-31T17:35:45.376Z,74.54
2022-12-31T17:38:29.507Z,75.08
2022-12-31T17:41:15.334Z,74.75
2022-12-31T17:43:42.754Z,74.79
2022-12-31T17:46:12.919Z,75.22
2022-12-31T17:48:43.225Z,75.26
2022-12-31T17:51:10.374Z,75.66
2022-12-31T17:53:37.373Z,75.82
2022-12-31T17:56:07.485Z,75.93
2022-12-31T17:58:54.074Z,75.99
2022-12-31T18:01:23.072Z,76.00
2022-12-31T18:03:50.354Z,76.38
2022-12-31T18:06:19.775Z,76.94
2022-12-31T18:08:49.813Z,76.22
2022-12-31T18:11:20.446Z,76.31
2022-12-31T18:13:49.521Z,76.56
2022-12-31T18:16:17.032Z,76.83
2022-12-31T18:18:45.603Z,77.16
2022-12-31T18:21:28.165Z,77.20
2022-12-31T18:26:25.177Z,78.02
2022-12-31T18:28:52.470Z,77.47
2022-12-31T18:31:25.756Z,78.21
2022-12-31T18:33:55.978Z,78.14
2022-12-31T18:36:25.915Z,78.47
2022-12-31T18:38:53.383Z,78.39
2022-12-31T18:41:30.537Z,78.85
2022-12-31T18:44:00.473Z,79.04
2022-12-31T18:46:27.897Z,78.94
2022-12-31T18:48:54.675Z,79.12
2022-12-31T18:51:31.499Z,79.60
2022-12-31T18:54:02.539Z,79.79
2022-12-31T18:56:32.381Z,79.79
2022-12-31T18:58:59.983Z,80.57
2022-12-31T19:01:35.696Z,80.04
2022-12-31T19:04:07.625Z,80.00
2022-12-31T19:06:34.383Z,80.73
2022-12-31T19:09:06.365Z,80.36
2022-12-31T19:11:45.164Z,80.73
2022-12-31T19:14:21.769Z,80.35
2022-12-31T19:16:49.670Z,80.73
2022-12-31T19:19:17.019Z,80.71
2022-12-31T19:21:44.304Z,80.25
2022-12-31T19:24:14.094Z,80.95
2022-12-31T19:26:43.539Z,81.36
2022-12-31T19:29:30.810Z,81.11
2022-12-31T19:32:03.324Z,81.92
2022-12-31T19:34:30.261Z,81.74
2022-12-31T19:36:58.547Z,81.69
2022-12-31T19:39:25.262Z,81.61
2022-12-31T19:41:58.775Z,81.18
2022-12-31T19:44:26.726Z,81.35
2022-12-31T19:46:56.261Z,82.01
2022-12-31T19:49:24.124Z,82.34
2022-12-31T19:51:51.015Z,82.54
2022-12-31T19:54:17.853Z,82.35
2022-12-31T19:56:44.849Z,82.58
2022-12-31T19:59:11.944Z,82.54
2022-12-31T20:01:38.925Z,82.53
2022-12-31T20:04:09.059Z,82.85
2022-12-31T20:06:35.864Z,83.02
2022-12-31T20:09:03.301Z,83.01
2022-12-31T20:11:30.052Z,82.98
2022-12-31T20:14:00.072Z,83.27
2022-12-31T20:16:32.860Z,82.88
2022-12-31T20:19:05.591Z,82.38
2022-12-31T20:21:36.246Z,82.13
2022-12-31T20:24:03.098Z,81.93
2022-12-31T20:26:30.340Z,81.77
2022-12-31T20:28:57.383Z,81.64
2022-12-31T20:31:25.591Z,81.57
2022-12-31T20:33:54.409Z,81.72
2022-12-31T20:36:21.953Z,81.76
2022-12-31T20:38:48.843Z,81.91
2022-12-31T20:41:19.308Z,81.90
2022-12-31T20:43:46.960Z,81.94
2022-12-31T20:46:21.727Z,82.04
2022-12-31T20:48:52.673Z,82.04
2022-12-31T20:51:22.355Z,81.75
2022-12-31T20:54:00.557Z,82.22
2022-12-31T20:56:31.022Z,82.35
2022-12-31T20:59:04.727Z,82.28
2022-12-31T21:01:55.692Z,83.28
2022-12-31T21:04:19.548Z,82.86
2022-12-31T21:06:48.157Z,82.86
2022-12-31T21:09:15.950Z,82.50
2022-12-31T21:12:15.732Z,83.12
2022-12-31T21:14:45.336Z,82.71
2022-12-31T21:17:22.020Z,83.36
2022-12-31T21:19:48.703Z,82.72
2022-12-31T21:22:15.834Z,82.46
2022-12-31T21:24:42.936Z,83.35
2022-12-31T21:27:12.963Z,82.69
2022-12-31T21:30:17.196Z,82.48
2022-12-31T21:32:32.858Z,82.83
2022-12-31T21:35:40.370Z,82.77
2022-12-31T21:37:58.923Z,82.81
2022-12-31T21:40:29.403Z,83.05
2022-12-31T21:42:56.274Z,82.55
2022-12-31T21:45:23.147Z,82.72
2022-12-31T21:48:08.965Z,83.42
2022-12-31T21:50:36.365Z,83.40
2022-12-31T21:53:03.281Z,83.02
2022-12-31T21:55:48.538Z,82.37
2022-12-31T21:58:32.028Z,82.05
2022-12-31T22:01:18.721Z,83.29
2022-12-31T22:03:46.100Z,82.80
2022-12-31T22:06:22.680Z,83.07
2022-12-31T22:08:51.988Z,83.07
2022-12-31T22:11:20.460Z,82.73
2022-12-31T22:13:49.565Z,82.83
2022-12-31T22:16:17.325Z,83.05
2022-12-31T22:18:46.983Z,82.42
2022-12-31T22:21:19.230Z,83.18
2022-12-31T22:23:49.358Z,83.30
2022-12-31T22:26:18.501Z,82.86
2022-12-31T22:28:46.656Z,83.01
2022-12-31T22:31:17.219Z,82.79
2022-12-31T22:33:48.098Z,83.17
2022-12-31T22:36:20.024Z,83.82
2022-12-31T22:38:47.569Z,83.64
2022-12-31T22:41:20.100Z,84.12
2022-12-31T22:43:50.061Z,84.05
2022-12-31T22:46:19.827Z,84.36
2022-12-31T22:48:47.161Z,84.36
2022-12-31T22:51:15.103Z,84.44
2022-12-31T22:53:43.573Z,84.58
2022-12-31T22:56:16.334Z,84.09
2022-12-31T22:58:46.512Z,83.98
2022-12-31T23:01:16.651Z,83.90
2022-12-31T23:03:43.980Z,84.49
2022-12-31T23:06:11.098Z,84.23
2022-12-31T23:08:40.910Z,84.51
2022-12-31T23:11:09.810Z,84.33
2022-12-31T23:13:59.276Z,84.70
2022-12-31T23:16:48.264Z,85.45
2022-12-31T23:19:34.865Z,85.33
2022-12-31T23:25:05.496Z,84.84
2022-12-31T23:27:32.344Z,85.21
2022-12-31T23:29:59.210Z,85.70
2022-12-31T23:32:26.864Z,85.18
2022-12-31T23:34:57.700Z,84.99
2022-12-31T23:37:24.908Z,84.71
2022-12-31T23:39:51.754Z,84.66
2022-12-31T23:42:18.558Z,84.64
2022-12-31T23:44:45.446Z,84.47
2022-12-31T23:47:15.521Z,85.38
2022-12-31T23:49:42.334Z,84.66
2022-12-31T23:52:12.246Z,84.60
2022-12-31T23:54:39.275Z,83.94
2022-12-31T23:57:06.263Z,84.38
2022-12-31T23:59:38.543Z,84.82
